Latest Weather Observations for Ferny Creek

IDV60801

Issued at 2:02 pm EDT Saturday 21 October 2017 (issued every 30 minutes, with the page automatically refreshed every 10 minutes)

About weather observations | Map of weather stations | Latest weather observations for VIC | Other Formats
Station Details ID: 086266 Name: FERNY CREEK Lat: -37.87 Lon: 145.35 Height: 512.9 m
Data from the previous 72 hours. | See also: Recent months at Ferny Creek
Date/Time
EDT
Temp
°C
App
Temp
°C
Dew
Point
°C
Rel
Hum
%
Delta-T
°C
Wind Press
QNH
hPa
Press
MSL
hPa
Rain since
9am
mm
Dir  Spd
km/h
Gust
km/h
Spd
kts
Gust
kts
21/02:00pm 8.8 6.7 6.8 87 1.0 WSW 7 20 4 11 1023.3 1023.2 0.4
21/01:30pm 8.7 7.0 7.5 92 0.6 WSW 6 9 3 5 1023.6 1023.5 0.4
21/01:00pm 8.9 6.8 6.7 86 1.0 SW 7 19 4 10 1023.8 1023.7 0.4
21/12:30pm 8.3 6.4 6.8 90 0.7 WSW 6 9 3 5 1024.2 1024.1 0.4
21/12:00pm 8.6 7.0 6.4 86 1.0 W 4 6 2 3 1024.5 1024.5 0.2
21/11:30am 8.5 6.9 6.5 87 1.0 SW 4 7 2 4 1024.6 1024.6 0.2
21/11:00am 7.7 5.6 6.0 89 0.8 SW 6 11 3 6 1024.8 1024.8 0.2
21/10:30am 8.2 6.7 7.0 92 0.6 SSW 4 7 2 4 1025.0 1025.0 0.2
21/10:00am 7.5 6.3 6.3 92 0.6 W 2 6 1 3 1025.0 1025.0 0.0
21/09:30am 7.3 5.6 6.1 92 0.6 WSW 4 7 2 4 1025.0 1025.0 0.0
21/09:00am 6.9 5.1 5.5 91 0.6 S 4 9 2 5 1025.0 1025.0 0.0
21/08:30am 7.2 5.7 4.9 85 1.0 S 2 6 1 3 1025.0 1025.0 0.0
21/08:00am 7.0 5.8 4.8 86 1.0 CALM 0 4 0 2 1025.0 1025.0 0.0
21/07:30am 6.6 4.6 4.6 87 0.9 SW 4 11 2 6 1025.2 1025.1 0.0
21/07:00am 6.6 4.5 3.9 83 1.2 SE 4 13 2 7 1025.2 1025.1 0.0
21/06:30am 6.6 4.5 3.8 82 1.2 E 4 6 2 3 1025.2 1025.1 0.0
21/06:00am 6.6 4.9 3.8 82 1.2 W 2 7 1 4 1025.2 1025.1 0.0
21/05:30am 6.6 4.5 4.1 84 1.1 SE 4 7 2 4 1025.2 1025.1 0.0
21/05:00am 6.7 4.6 4.0 83 1.2 ESE 4 7 2 4 1025.2 1025.1 0.0
21/04:30am 6.8 4.6 3.6 80 1.4 S 4 13 2 7 1025.3 1025.2 0.0
21/04:00am 6.8 4.6 3.1 77 1.6 SSE 4 7 2 4 1025.5 1025.4 0.0
21/03:30am 6.8 4.1 2.9 76 1.7 S 6 17 3 9 1025.8 1025.7 0.0
21/03:00am 6.9 4.0 2.6 74 1.8 SSW 7 15 4 8 1026.0 1025.9 0.0
21/02:30am 6.9 4.6 2.6 74 1.8 SW 4 15 2 8 1026.2 1026.2 0.0
21/02:00am 6.9 4.6 2.6 74 1.8 S 4 11 2 6 1026.5 1026.5 0.0
21/01:30am 7.0 4.7 2.9 75 1.8 SSW 4 7 2 4 1026.8 1026.8 0.0
21/01:00am 7.1 5.3 3.2 76 1.7 SSW 2 13 1 7 1027.2 1027.1 0.0
21/12:30am 7.2 4.5 2.9 74 1.9 SSW 6 11 3 6 1027.4 1027.3 0.0
21/12:00am 7.2 4.5 2.7 73 1.9 S 6 9 3 5 1027.5 1027.4 0.0
 
Date/Time
EDT
Temp
°C
App
Temp
°C
Dew
Point
°C
Rel
Hum
%
Delta-T
°C
Wind Press
QNH
hPa
Press
MSL
hPa
Rain since
9am
mm
Dir  Spd
km/h
Gust
km/h
Spd
kts
Gust
kts
20/11:30pm 7.3 4.6 2.6 72 2.0 SSW 6 15 3 8 1027.7 1027.6 0.0
20/11:00pm 7.2 4.8 2.3 71 2.1 SSW 4 11 2 6 1027.8 1027.8 0.0
20/10:30pm 7.3 4.6 2.4 71 2.1 SW 6 13 3 7 1028.0 1028.0 0.0
20/10:00pm 7.4 5.2 3.3 75 1.8 SW 4 19 2 10 1028.2 1028.2 0.0
20/09:30pm 7.5 5.3 3.6 76 1.7 SSW 4 13 2 7 1028.2 1028.2 0.0
20/09:00pm 7.7 5.2 3.7 76 1.8 SW 6 11 3 6 1028.2 1028.2 0.0
20/08:30pm 7.9 5.3 3.2 72 2.1 SSE 6 13 3 7 1027.9 1027.9 0.0
20/08:00pm 7.9 5.2 2.6 69 2.3 SSE 6 17 3 9 1027.7 1027.6 0.0
20/07:30pm 7.9 5.2 2.6 69 2.3 SE 6 13 3 7 1027.4 1027.3 0.0
20/07:00pm 8.3 5.5 2.3 66 2.6 E 6 17 3 9 1027.4 1027.3 0.0
20/06:30pm 9.1 6.1 1.8 60 3.1 S 7 17 4 9 1027.2 1027.1 0.0
20/06:00pm 9.8 7.2 3.3 64 2.9 SE 6 15 3 8 1027.0 1027.0 0.0
20/05:30pm 10.8 7.7 3.6 61 3.3 S 9 26 5 14 1026.8 1026.8 0.0
20/05:00pm 10.6 7.4 3.2 60 3.3 SW 9 20 5 11 1026.7 1026.7 0.0
20/04:30pm 11.4 9.0 4.4 62 3.2 SSE 6 11 3 6 1026.6 1026.6 0.0
20/04:00pm 10.9 7.7 3.2 59 3.4 SSW 9 28 5 15 1026.6 1026.6 0.0
20/03:30pm 11.6 9.1 3.9 59 3.5 ENE 6 22 3 12 1026.6 1026.6 0.0
20/03:00pm 11.4 8.6 3.2 57 3.7 SSE 7 17 4 9 1026.8 1026.8 0.0
20/02:30pm 11.3 8.6 3.8 60 3.4 S 7 22 4 12 1026.9 1026.9 0.0
20/02:00pm 11.6 8.4 2.9 55 3.9 S 9 17 5 9 1026.9 1026.9 0.0
20/01:30pm 11.6 8.5 3.4 57 3.7 SSW 9 22 5 12 1026.9 1026.9 0.0
20/01:00pm 11.1 8.5 4.3 63 3.1 SSE 7 15 4 8 1027.0 1027.0 0.0
20/12:30pm 10.2 7.7 4.8 69 2.5 SSE 7 15 4 8 1026.9 1026.9 0.0
20/12:00pm 10.2 7.3 4.6 68 2.6 S 9 24 5 13 1027.0 1027.0 0.0
20/11:30am 12.7 9.9 3.4 53 4.3 ESE 7 15 4 8 1026.8 1026.8 0.0
20/11:00am 10.4 7.9 3.9 64 2.9 SSE 6 13 3 7 1027.0 1027.0 0.0
20/10:30am 10.8 8.2 4.0 63 3.1 SE 7 22 4 12 1026.9 1026.9 0.0
20/10:00am 10.7 7.5 3.0 59 3.4 SSW 9 19 5 10 1026.8 1026.8 0.0
20/09:30am 10.4 7.1 2.7 59 3.4 S 9 20 5 11 1026.4 1026.4 0.0
20/09:00am 9.7 6.7 4.1 68 2.5 SW 9 19 5 10 1026.2 1026.2 6.0
20/08:30am 9.5 6.9 3.0 64 2.9 SSW 6 13 3 7 1026.0 1025.9 6.0
20/08:00am 8.8 6.1 3.6 70 2.3 SW 7 17 4 9 1025.7 1025.6 6.0
20/07:30am 8.1 5.3 3.4 72 2.1 SSW 7 15 4 8 1025.3 1025.2 6.0
20/07:00am 7.6 5.9 5.7 88 0.9 W 4 13 2 7 1025.0 1025.0 6.0
20/06:30am 8.2 6.2 7.1 93 0.5 WSW 7 17 4 9 1024.5 1024.5 6.0
20/06:00am 8.2 6.4 7.3 94 0.4 W 6 13 3 7 1024.0 1023.9 6.0
20/05:30am 8.2 6.4 7.1 93 0.5 W 6 11 3 6 1023.7 1023.6 6.0
20/05:00am 8.2 6.7 7.0 92 0.6 W 4 13 2 7 1023.5 1023.4 6.0
20/04:30am 8.3 6.8 6.8 90 0.7 W 4 9 2 5 1023.4 1023.3 6.0
20/04:00am 7.9 6.7 6.5 91 0.7 W 2 4 1 2 1023.2 1023.1 6.0
20/03:30am 8.7 7.6 6.8 88 0.9 W 2 4 1 2 1023.3 1023.2 6.0
20/03:00am 8.6 7.5 6.7 88 0.9 W 2 4 1 2 1023.3 1023.2 6.0
20/02:30am 8.8 7.7 6.9 88 0.9 W 2 4 1 2 1023.3 1023.2 6.0
20/02:00am 8.6 7.9 6.9 89 0.8 CALM 0 4 0 2 1023.4 1023.3 6.0
20/01:30am 8.3 7.2 6.8 90 0.7 WSW 2 6 1 3 1023.5 1023.4 6.0
20/01:00am 8.8 7.6 6.6 86 1.0 WSW 2 4 1 2 1023.6 1023.5 6.0
20/12:30am 9.4 8.0 7.3 87 1.0 WSW 4 7 2 4 1023.7 1023.6 6.0
20/12:00am 9.3 8.4 7.9 91 0.7 W 2 4 1 2 1023.9 1023.8 6.0
 
Date/Time
EDT
Temp
°C
App
Temp
°C
Dew
Point
°C
Rel
Hum
%
Delta-T
°C
Wind Press
QNH
hPa
Press
MSL
hPa
Rain since
9am
mm
Dir  Spd
km/h
Gust
km/h
Spd
kts
Gust
kts
19/11:30pm 9.4 8.5 7.8 90 0.8 W 2 9 1 5 1023.8 1023.7 6.0
19/11:00pm 9.5 9.0 7.9 90 0.8 CALM 0 6 0 3 1023.7 1023.6 6.0
19/10:30pm 9.7 9.3 8.1 90 0.8 CALM 0 2 0 1 1023.6 1023.5 6.0
19/10:00pm 9.9 8.7 8.0 88 0.9 WSW 4 7 2 4 1023.7 1023.6 6.0
19/09:30pm 10.1 9.2 7.9 86 1.1 SE 2 7 1 4 1023.5 1023.4 6.0
19/09:00pm 10.4 9.6 8.3 87 1.0 SSW 2 7 1 4 1023.1 1023.0 6.0
19/08:30pm 10.7 9.8 9.1 90 0.8 SSE 4 11 2 6 1022.6 1022.5 6.0
19/08:00pm 11.2 10.2 10.3 94 0.5 WSW 6 11 3 6 1021.4 1021.3 6.0
19/07:30pm 11.5 10.0 10.4 93 0.6 WSW 9 20 5 11 1020.7 1020.6 6.0
19/07:00pm 12.0 10.7 11.4 96 0.3 WSW 9 19 5 10 1020.3 1020.2 6.0
19/06:30pm 12.6 11.5 12.0 96 0.3 SW 9 22 5 12 1019.4 1019.2 6.0
19/06:00pm 13.3 12.4 12.7 96 0.3 SW 9 19 5 10 1019.0 1018.8 6.0
19/05:30pm 14.8 14.3 13.7 93 0.6 SW 9 24 5 13 1018.1 1018.0 6.0
19/05:00pm 16.8 15.8 14.6 87 1.3 WSW 13 28 7 15 1017.7 1017.5 6.0
19/04:30pm 18.2 18.3 15.6 85 1.6 W 9 30 5 16 1017.4 1017.2 6.0
19/04:00pm 19.0 20.7 18.0 94 0.6 WSW 6 11 3 6 1017.3 1017.1 6.0
19/03:30pm 18.4 20.2 17.4 94 0.6 SW 4 11 2 6 1017.1 1016.9 5.8
19/03:00pm 19.0 20.5 16.6 86 1.5 N 4 11 2 6 1017.1 1016.9 2.6
19/02:30pm 19.1 20.2 16.5 85 1.6 N 6 9 3 5 1017.5 1017.3 1.8
19/02:00pm 20.6 21.0 16.2 76 2.7 NNW 9 24 5 13 1017.7 1017.5 1.8
19/01:30pm 19.3 19.6 16.0 81 2.0 NNW 9 24 5 13 1017.6 1017.4 1.8
19/01:00pm 17.8 18.7 16.1 90 1.0 NNW 6 17 3 9 1017.6 1017.4 1.8
19/12:30pm 17.1 18.2 15.6 91 0.9 N 4 9 2 5 1017.6 1017.4 1.8
19/12:00pm 17.6 18.5 15.2 86 1.4 NW 4 9 2 5 1017.7 1017.5 0.8
19/11:30am 17.4 18.2 14.9 85 1.5 NNW 4 9 2 5 1017.9 1017.8 0.6
19/11:00am 18.6 18.6 13.7 73 2.9 N 6 11 3 6 1017.8 1017.7 0.0
19/10:30am 18.5 18.4 13.4 72 3.0 NW 6 15 3 8 1018.1 1018.0 0.0
19/10:00am 18.7 18.3 12.9 69 3.3 NNW 7 17 4 9 1017.7 1017.5 0.0
19/09:30am 19.7 18.5 12.9 65 3.9 N 11 22 6 12 1017.5 1017.3 0.0
19/09:00am 19.9 19.3 12.2 61 4.4 N 7 19 4 10 1017.5 1017.3 0.2
19/08:30am 18.6 17.5 12.1 66 3.7 N 9 20 5 11 1017.5 1017.3 0.2
19/08:00am 20.9 19.4 10.7 52 5.7 N 9 20 5 11 1017.1 1016.9 0.0
19/07:30am 20.9 18.4 9.8 49 6.1 N 13 28 7 15 1016.7 1016.6 0.0
19/07:00am 21.1 19.2 9.0 46 6.6 N 9 24 5 13 1016.5 1016.4 0.0
19/06:30am 21.3 18.0 8.2 43 7.0 N 15 35 8 19 1015.9 1015.7 0.0
19/06:00am 21.3 17.4 7.2 40 7.4 N 17 35 9 19 1015.5 1015.3 0.0
19/05:30am 21.0 17.1 7.3 41 7.2 NNE 17 35 9 19 1015.5 1015.3 0.0
19/05:00am 21.1 17.2 7.3 41 7.3 NNE 17 35 9 19 1015.7 1015.5 0.0
19/04:30am 21.0 17.3 8.0 43 6.9 NNE 17 37 9 20 1016.0 1015.8 0.0
19/04:00am 21.0 17.7 8.0 43 6.9 NNE 15 30 8 16 1016.0 1015.8 0.0
19/03:30am 21.5 17.5 8.1 42 7.2 NNE 19 44 10 24 1016.4 1016.3 0.0
19/03:00am 21.1 17.8 8.0 43 7.0 NNE 15 41 8 22 1017.0 1016.8 0.0
19/02:30am 21.4 18.2 8.3 43 7.0 NNE 15 35 8 19 1017.4 1017.2 0.0
19/02:00am 21.4 18.6 8.7 44 6.9 NNE 13 28 7 15 1017.8 1017.7 0.0
19/01:30am 21.2 17.7 8.8 45 6.7 NNE 17 32 9 17 1018.2 1018.1 0.0
19/01:00am 20.9 17.5 9.2 47 6.4 NE 17 30 9 16 1018.5 1018.4 0.0
19/12:30am 20.9 17.5 9.2 47 6.4 NE 17 35 9 19 1019.1 1018.9 0.0
19/12:00am 20.3 17.4 9.5 50 5.9 NE 15 24 8 13 1019.7 1019.6 0.0
 
Date/Time
EDT
Temp
°C
App
Temp
°C
Dew
Point
°C
Rel
Hum
%
Delta-T
°C
Wind Press
QNH
hPa
Press
MSL
hPa
Rain since
9am
mm
Dir  Spd
km/h
Gust
km/h
Spd
kts
Gust
kts
18/11:30pm 20.8 17.8 9.1 47 6.4 NE 15 26 8 14 1019.9 1019.8 0.0
18/11:00pm 21.1 18.3 8.7 45 6.7 NNE 13 30 7 16 1020.2 1020.1 0.0
18/10:30pm 20.9 18.3 9.2 47 6.4 NE 13 22 7 12 1020.4 1020.3 0.0
18/10:00pm 21.1 18.7 8.7 45 6.7 NE 11 22 6 12 1020.7 1020.6 0.0
18/09:30pm 21.9 19.7 9.4 45 6.9 NE 11 22 6 12 1020.8 1020.7 0.0
18/09:00pm 22.1 20.0 9.9 46 6.8 NE 11 17 6 9 1020.6 1020.5 0.0
18/08:30pm 22.3 20.9 9.5 44 7.1 NNE 7 19 4 10 1020.4 1020.3 0.0
18/08:00pm 22.4 20.5 9.2 43 7.2 N 9 20 5 11 1020.4 1020.3 0.0
18/07:30pm 23.1 21.1 8.8 40 7.8 N 9 22 5 12 1020.0 1019.9 0.0
18/07:00pm 23.3 21.9 9.7 42 7.6 N 7 15 4 8 1020.0 1019.9 0.0
18/06:30pm 23.7 22.2 9.3 40 8.0 N 7 15 4 8 1019.8 1019.7 0.0
18/06:00pm 24.1 22.0 8.1 36 8.7 N 9 28 5 15 1019.9 1019.8 0.0
18/05:30pm 24.4 22.5 9.2 38 8.4 NNE 9 24 5 13 1019.9 1019.8 0.0
18/05:00pm 25.2 23.2 8.7 35 9.1 NNE 9 24 5 13 1019.9 1019.8 0.0
18/04:30pm 25.0 22.9 9.7 38 8.6 NE 11 28 6 15 1020.2 1020.1 0.0
18/04:00pm 25.9 24.1 9.3 35 9.3 N 9 17 5 9 1020.3 1020.2 0.0
18/03:30pm 25.7 24.4 9.9 37 8.9 N 7 15 4 8 1020.7 1020.6 0.0
18/03:00pm 25.6 24.3 9.8 37 8.9 NNW 7 22 4 12 1021.2 1021.1 0.0
18/02:30pm 25.3 23.5 10.7 40 8.4 NNW 11 22 6 12 1021.7 1021.6 0.0

Other Formats:

Comma delimited format used in spreadsheet applications
http://www.bom.gov.au/fwo/IDV60801/IDV60801.94872.axf

JavaScript Object Notation format (JSON) in row-major order
http://www.bom.gov.au/fwo/IDV60801/IDV60801.94872.json